Hesperides — EANN — position and weather

sailwx.info

Track history (hours):
 
Tides and Currents Weather Stations Pressure Air Temp Water Temp Dewpoint Dewpoint Depression Visibility Wind Speed Wind Dir Waves Ship Positions

Hesperides

Last reported at 2015-Jun-30 16:33 UTC. Time now 2015-Jul-01 06:38 UTC.
Position N 27°58' W 015°23'.

Length 122 m; draft 7.5 m.

Type: Tanker. MMSI: 224462000.

Date/timePositionNaut miles runAvg speedWind from/ knotsBaromVisibWave heightAir tempDewpointWater temp
2015-Jun-30 16:33N 27°58' W 015°23'8 8.4
2015-Jun-30 15:34N 28°07' W 015°20'10 9.9
2015-Jun-30 14:33N 28°14' W 015°27'1111.1
2015-Jun-30 13:33N 28°17' W 015°40'1110.8
2015-Jun-30 12:33N 28°20' W 015°51'1111.4
2015-Jun-30 11:33N 28°24' W 016°04'1110.8
2015-Jun-30 10:32N 28°27' W 016°16'0 0.4
2015-Jun-30 09:33N 28°27' W 016°16'3 0.2
2015-Jun-29 17:31N 28°28' W 016°12'1111.3
2015-Jun-29 16:32N 28°24' W 016°01'1111.4
2015-Jun-29 15:33N 28°20' W 015°49'1111.6
2015-Jun-29 14:34N 28°16' W 015°36'1211.5
2015-Jun-29 13:34N 28°12' W 015°24'1010.1
2015-Jun-29 12:34N 28°02' W 015°21'4 4.1
2015-Jun-29 11:33N 27°59' W 015°23'0 0.0
2015-Jun-28 18:12N 27°59' W 015°23'2 2.5
2015-Jun-28 17:33N 27°60' W 015°21'1211.6
2015-Jun-28 16:33N 28°11' W 015°21'1010.5
2015-Jun-28 15:33N 28°15' W 015°32'1110.9
2015-Jun-28 14:33N 28°17' W 015°44'1110.7
2015-Jun-28 13:33N 28°20' W 015°55'1111.2
2015-Jun-28 12:33N 28°25' W 016°07'8 7.2
2015-Jun-28 11:29N 28°27' W 016°16'0 0.0
2015-Jun-27 17:04N 28°27' W 016°16'0 0.2
2015-Jun-27 16:33N 28°27' W 016°16'7 6.8
2015-Jun-27 15:33N 28°26' W 016°08'1111.3
2015-Jun-27 14:33N 28°22' W 015°56'1111.4
2015-Jun-27 13:33N 28°19' W 015°44'1111.4
2015-Jun-27 12:33N 28°15' W 015°31'1010.1
2015-Jun-27 11:34N 28°10' W 015°21'1110.9
2015-Jun-27 10:34N 27°59' W 015°21'2 1.7
2015-Jun-27 09:33N 27°59' W 015°23'0 0.0
2015-Jun-26 18:33N 27°59' W 015°23'3 2.7
2015-Jun-26 17:33N 27°60' W 015°20'9 8.6
2015-Jun-26 16:33N 28°08' W 015°20'1010.0
2015-Jun-26 15:33N 28°15' W 015°29'1111.1
2015-Jun-26 14:33N 28°17' W 015°41'1110.9
2015-Jun-26 13:33N 28°21' W 015°52'1111.2
2015-Jun-26 12:32N 28°25' W 016°05'9 8.7
2015-Jun-26 11:33N 28°29' W 016°13'0 0.0
2015-Jun-26 10:32N 28°29' W 016°13'0 0.0
2015-Jun-25 23:31N 28°29' W 016°13'3 3.0
2015-Jun-25 22:33N 28°29' W 016°10'1212.5
2015-Jun-25 21:33N 28°34' W 015°57'1212.0
2015-Jun-25 20:33N 28°39' W 015°44'1212.2
2015-Jun-25 19:32N 28°40' W 015°30'1212.3
2015-Jun-25 18:33N 28°42' W 015°17'1110.6
2015-Jun-25 17:33N 28°42' W 015°05'1212.1
2015-Jun-25 16:33N 28°42' W 014°51'1512.3
2015-Jun-25 15:22N 28°43' W 014°34'1011.8
2015-Jun-25 14:32N 28°44' W 014°23'1411.7
2015-Jun-25 13:21N 28°46' W 014°08'1012.3
2015-Jun-25 12:33N 28°48' W 013°57'1211.5
2015-Jun-25 11:33N 28°50' W 013°44'1211.5
2015-Jun-25 10:30N 28°57' W 013°32'1 0.0
2015-Jun-24 11:33N 28°58' W 013°32'140 2.8
2015-Jun-22 09:33N 28°26' W 016°08'1211.8
2015-Jun-22 08:33N 28°22' W 015°55'1111.4
2015-Jun-22 07:33N 28°19' W 015°43'1111.3
2015-Jun-22 06:33N 28°15' W 015°31'1010.3
2015-Jun-22 05:33N 28°10' W 015°21'1010.1
2015-Jun-22 04:33N 27°60' W 015°19'4 0.2
2015-Jun-21 11:03N 27°59' W 015°23'1 1.6
2015-Jun-21 10:33N 27°59' W 015°22'1010.2
2015-Jun-21 09:33N 28°09' W 015°21'1010.1
2015-Jun-21 08:33N 28°15' W 015°30'1110.7
2015-Jun-21 07:33N 28°18' W 015°42'1110.7
2015-Jun-21 06:33N 28°21' W 015°54'1110.5
2015-Jun-21 05:33N 28°24' W 016°05'10 9.6
2015-Jun-21 04:30N 28°27' W 016°16'0 0.0
2015-Jun-21 03:18N 28°27' W 016°16'  
Track history (hours):
 
Tides and Currents Weather Stations Pressure Air Temp Water Temp Dewpoint Dewpoint Depression Visibility Wind Speed Wind Dir Waves Ship Positions

Hesperides

Last reported at 2015-Jun-30 16:33 UTC. Time now 2015-Jul-01 06:38 UTC.
Position N 27°58' W 015°23'.

Length 122 m; draft 7.5 m.

Type: Tanker. MMSI: 224462000.

Date/timePositionNaut miles runAvg speedWind from/ knotsBaromVisibWave heightAir tempDewpointWater temp
2015-Jun-30 16:33N 27°58' W 015°23'8 8.4
2015-Jun-30 15:34N 28°07' W 015°20'10 9.9
2015-Jun-30 14:33N 28°14' W 015°27'1111.1
2015-Jun-30 13:33N 28°17' W 015°40'1110.8
2015-Jun-30 12:33N 28°20' W 015°51'1111.4
2015-Jun-30 11:33N 28°24' W 016°04'1110.8
2015-Jun-30 10:32N 28°27' W 016°16'0 0.4
2015-Jun-30 09:33N 28°27' W 016°16'3 0.2
2015-Jun-29 17:31N 28°28' W 016°12'1111.3
2015-Jun-29 16:32N 28°24' W 016°01'1111.4
2015-Jun-29 15:33N 28°20' W 015°49'1111.6
2015-Jun-29 14:34N 28°16' W 015°36'1211.5
2015-Jun-29 13:34N 28°12' W 015°24'1010.1
2015-Jun-29 12:34N 28°02' W 015°21'4 4.1
2015-Jun-29 11:33N 27°59' W 015°23'0 0.0
2015-Jun-28 18:12N 27°59' W 015°23'2 2.5
2015-Jun-28 17:33N 27°60' W 015°21'1211.6
2015-Jun-28 16:33N 28°11' W 015°21'1010.5
2015-Jun-28 15:33N 28°15' W 015°32'1110.9
2015-Jun-28 14:33N 28°17' W 015°44'1110.7
2015-Jun-28 13:33N 28°20' W 015°55'1111.2
2015-Jun-28 12:33N 28°25' W 016°07'8 7.2
2015-Jun-28 11:29N 28°27' W 016°16'0 0.0
2015-Jun-27 17:04N 28°27' W 016°16'0 0.2
2015-Jun-27 16:33N 28°27' W 016°16'7 6.8
2015-Jun-27 15:33N 28°26' W 016°08'1111.3
2015-Jun-27 14:33N 28°22' W 015°56'1111.4
2015-Jun-27 13:33N 28°19' W 015°44'1111.4
2015-Jun-27 12:33N 28°15' W 015°31'1010.1
2015-Jun-27 11:34N 28°10' W 015°21'1110.9
2015-Jun-27 10:34N 27°59' W 015°21'2 1.7
2015-Jun-27 09:33N 27°59' W 015°23'0 0.0
2015-Jun-26 18:33N 27°59' W 015°23'3 2.7
2015-Jun-26 17:33N 27°60' W 015°20'9 8.6
2015-Jun-26 16:33N 28°08' W 015°20'1010.0
2015-Jun-26 15:33N 28°15' W 015°29'1111.1
2015-Jun-26 14:33N 28°17' W 015°41'1110.9
2015-Jun-26 13:33N 28°21' W 015°52'1111.2
2015-Jun-26 12:32N 28°25' W 016°05'9 8.7
2015-Jun-26 11:33N 28°29' W 016°13'0 0.0
2015-Jun-26 10:32N 28°29' W 016°13'0 0.0
2015-Jun-25 23:31N 28°29' W 016°13'3 3.0
2015-Jun-25 22:33N 28°29' W 016°10'1212.5
2015-Jun-25 21:33N 28°34' W 015°57'1212.0
2015-Jun-25 20:33N 28°39' W 015°44'1212.2
2015-Jun-25 19:32N 28°40' W 015°30'1212.3
2015-Jun-25 18:33N 28°42' W 015°17'1110.6
2015-Jun-25 17:33N 28°42' W 015°05'1212.1
2015-Jun-25 16:33N 28°42' W 014°51'1512.3
2015-Jun-25 15:22N 28°43' W 014°34'1011.8
2015-Jun-25 14:32N 28°44' W 014°23'1411.7
2015-Jun-25 13:21N 28°46' W 014°08'1012.3
2015-Jun-25 12:33N 28°48' W 013°57'1211.5
2015-Jun-25 11:33N 28°50' W 013°44'1211.5
2015-Jun-25 10:30N 28°57' W 013°32'1 0.0
2015-Jun-24 11:33N 28°58' W 013°32'140 2.8
2015-Jun-22 09:33N 28°26' W 016°08'1211.8
2015-Jun-22 08:33N 28°22' W 015°55'1111.4
2015-Jun-22 07:33N 28°19' W 015°43'1111.3
2015-Jun-22 06:33N 28°15' W 015°31'1010.3
2015-Jun-22 05:33N 28°10' W 015°21'1010.1
2015-Jun-22 04:33N 27°60' W 015°19'4 0.2
2015-Jun-21 11:03N 27°59' W 015°23'1 1.6
2015-Jun-21 10:33N 27°59' W 015°22'1010.2
2015-Jun-21 09:33N 28°09' W 015°21'1010.1
2015-Jun-21 08:33N 28°15' W 015°30'1110.7
2015-Jun-21 07:33N 28°18' W 015°42'1110.7
2015-Jun-21 06:33N 28°21' W 015°54'1110.5
2015-Jun-21 05:33N 28°24' W 016°05'10 9.6
2015-Jun-21 04:30N 28°27' W 016°16'0 0.0
2015-Jun-21 03:18N 28°27' W 016°16'  

Dump ship's entire track history